Time;durP1;ratioP1;P1;durP2;ratioP2;P2;SDS_P1;SDS_P2;PMS_P1;PMS_P2;Temp;Humidity;BMP_temperature;BMP_pressure;BME280_temperature;BME280_humidity;BME280_pressure;Samples;Min_cycle;Max_cycle;Signal;HPM_P1;HPM_P2
2024/02/09 00:00:57;;;;;;;;;;;256.10;2252.80;;;;;;5014380;28;19905;-85
2024/02/09 00:03:26;;;;;;;;;;;256.10;2252.80;;;;;;5029750;28;19917;-86
2024/02/09 00:05:52;;;;;;;;;;;256.00;2252.80;;;;;;5011299;28;20053;-86
2024/02/09 00:08:18;;;;;;;;;;;231.30;2252.80;;;;;;5014325;28;20007;-86
2024/02/09 00:10:44;;;;;;;;;;;230.90;2252.80;;;;;;5012235;28;19963;-85
2024/02/09 00:13:12;;;;;;;;;;;230.90;2252.80;;;;;;5011803;28;20004;-88
2024/02/09 00:15:38;;;;;;;;;;;230.90;2252.80;;;;;;5001268;28;19910;-84
2024/02/09 00:18:04;;;;;;;;;;;230.80;2252.80;;;;;;5010734;28;19917;-88
2024/02/09 00:20:30;;;;;;;;;;;230.70;2252.80;;;;;;5011281;28;19917;-86
2024/02/09 00:22:55;;;;;;;;;;;230.50;2252.80;;;;;;5027840;28;19919;-86
2024/02/09 00:25:21;;;;;;;;;;;230.50;2252.80;;;;;;5022030;28;19995;-88
2024/02/09 00:27:46;;;;;;;;;;;205.70;2252.80;;;;;;5006159;28;19913;-87
2024/02/09 00:30:13;;;;;;;;;;;205.50;2252.80;;;;;;5023097;28;19913;-85
2024/02/09 00:32:39;;;;;;;;;;;205.70;2252.80;;;;;;5022424;28;19909;-85
2024/02/09 00:35:07;;;;;;;;;;;230.40;2252.80;;;;;;5009500;28;19916;-85
2024/02/09 00:37:32;;;;;;;;;;;230.50;2252.80;;;;;;5007887;28;19921;-87
2024/02/09 00:39:58;;;;;;;;;;;230.50;2252.80;;;;;;5007250;28;19911;-84
2024/02/09 00:42:24;;;;;;;;;;;230.50;2252.80;;;;;;5025451;28;19909;-84
2024/02/09 00:44:49;;;;;;;;;;;230.50;2252.80;;;;;;5009298;28;19909;-86
2024/02/09 00:47:15;;;;;;;;;;;230.40;2252.80;;;;;;5008972;28;19992;-84
2024/02/09 00:49:44;;;;;;;;;;;230.50;2252.80;;;;;;5026065;28;19913;-86
2024/02/09 00:52:14;;;;;;;;;;;230.40;2252.80;;;;;;5015687;28;20000;-84
2024/02/09 00:54:41;;;;;;;;;;;205.60;2252.80;;;;;;5008280;28;19943;-88
2024/02/09 00:57:07;;;;;;;;;;;230.60;2252.80;;;;;;5011260;28;19999;-91
2024/02/09 00:59:38;;;;;;;;;;;230.70;2252.80;;;;;;5004898;28;19917;-89
2024/02/09 01:02:07;;;;;;;;;;;230.70;2252.80;;;;;;5011380;28;19909;-86
2024/02/09 01:04:36;;;;;;;;;;;230.70;2252.80;;;;;;5011310;28;19909;-87
2024/02/09 01:07:05;;;;;;;;;;;230.70;2252.80;;;;;;5005103;28;20473;-86
2024/02/09 01:09:35;;;;;;;;;;;230.70;2252.80;;;;;;5009763;28;19916;-84
2024/02/09 02:44:46;;;;;;;;;;;256.20;2252.80;;;;;;5029282;28;19909;-87
2024/02/09 02:47:12;;;;;;;;;;;256.20;2252.80;;;;;;5015967;28;20085;-91
2024/02/09 03:06:10;;;;;;;;;;;230.60;2252.80;;;;;;5037113;28;19932;-90
2024/02/09 03:08:36;;;;;;;;;;;230.50;2252.80;;;;;;5019969;28;19927;-91
2024/02/09 03:11:03;;;;;;;;;;;230.50;2252.80;;;;;;5019399;28;20355;-91
2024/02/09 03:13:29;;;;;;;;;;;230.50;2252.80;;;;;;5019740;28;19909;-90
2024/02/09 03:15:54;;;;;;;;;;;230.60;2252.80;;;;;;5019694;28;20359;-90
2024/02/09 03:18:22;;;;;;;;;;;230.60;2252.80;;;;;;5018881;28;19924;-91
2024/02/09 03:20:48;;;;;;;;;;;230.80;2252.80;;;;;;5018922;28;19917;-90
2024/02/09 03:23:17;;;;;;;;;;;230.80;2252.80;;;;;;5019290;28;19966;-91
2024/02/09 03:25:42;;;;;;;;;;;230.80;2252.80;;;;;;5019517;28;19909;-91
2024/02/09 03:28:08;;;;;;;;;;;230.90;2252.80;;;;;;5018988;28;19912;-90
2024/02/09 03:30:34;;;;;;;;;;;231.00;2252.80;;;;;;5019151;28;19927;-84
2024/02/09 03:33:00;;;;;;;;;;;231.00;2252.80;;;;;;5018633;28;19912;-90
2024/02/09 03:35:25;;;;;;;;;;;231.20;2252.80;;;;;;5012634;28;19912;-90
2024/02/09 03:37:51;;;;;;;;;;;231.20;2252.80;;;;;;5014550;28;20314;-90
2024/02/09 03:40:16;;;;;;;;;;;231.30;2252.80;;;;;;5018621;28;19975;-91
2024/02/09 03:42:43;;;;;;;;;;;231.30;2252.80;;;;;;5017956;28;19959;-89
2024/02/09 03:45:08;;;;;;;;;;;256.00;2252.80;;;;;;5018439;28;19959;-92
2024/02/09 03:47:34;;;;;;;;;;;256.10;2252.80;;;;;;5018972;28;19905;-89
2024/02/09 03:50:00;;;;;;;;;;;256.20;2252.80;;;;;;5018883;28;19912;-90
2024/02/09 03:52:27;;;;;;;;;;;256.20;2252.80;;;;;;5018900;28;19913;-90
2024/02/09 03:54:53;;;;;;;;;;;256.10;2252.80;;;;;;5015533;28;20027;-90
2024/02/09 03:57:22;;;;;;;;;;;256.60;2252.80;;;;;;5018990;28;19913;-91
2024/02/09 03:59:49;;;;;;;;;;;256.00;2252.80;;;;;;5018603;28;20375;-90
2024/02/09 04:02:15;;;;;;;;;;;231.20;2252.80;;;;;;5018665;28;20004;-88
2024/02/09 04:04:42;;;;;;;;;;;231.00;2252.80;;;;;;5016155;28;21232;-90
2024/02/09 04:07:08;;;;;;;;;;;230.70;2252.80;;;;;;5009788;28;19952;-90
2024/02/09 04:09:34;;;;;;;;;;;205.70;2252.80;;;;;;5018446;28;19905;-85
2024/02/09 04:11:59;;;;;;;;;;;205.60;2252.80;;;;;;5014986;28;19905;-87
2024/02/09 04:14:27;;;;;;;;;;;205.50;2252.80;;;;;;5018152;28;19913;-87
2024/02/09 04:16:53;;;;;;;;;;;205.40;2252.80;;;;;;5018551;28;19916;-87
2024/02/09 04:19:23;;;;;;;;;;;205.40;2252.80;;;;;;5035224;28;19913;-92
2024/02/09 04:21:48;;;;;;;;;;;205.40;2252.80;;;;;;5015183;28;20007;-92
2024/02/09 04:24:19;;;;;;;;;;;205.30;2252.80;;;;;;5014424;28;19936;-85
2024/02/09 04:26:46;;;;;;;;;;;205.30;2252.80;;;;;;5017763;28;20003;-93
2024/02/09 04:29:15;;;;;;;;;;;205.50;2252.80;;;;;;5017421;28;19905;-91
2024/02/09 04:31:47;;;;;;;;;;;205.60;2252.80;;;;;;5017645;28;19905;-90
2024/02/09 04:34:13;;;;;;;;;;;205.60;2252.80;;;;;;5012258;28;19996;-91
2024/02/09 04:36:44;;;;;;;;;;;205.60;2252.80;;;;;;5016416;28;20397;-92
2024/02/09 04:39:12;;;;;;;;;;;205.50;2252.80;;;;;;4999852;28;19950;-91
2024/02/09 04:41:39;;;;;;;;;;;205.20;2252.80;;;;;;5017839;28;19912;-90
2024/02/09 04:44:05;;;;;;;;;;;205.20;2252.80;;;;;;5017526;28;19905;-91
2024/02/09 04:46:34;;;;;;;;;;;205.10;2252.80;;;;;;5017864;28;19905;-91
2024/02/09 04:49:01;;;;;;;;;;;205.10;2252.80;;;;;;5017884;28;19927;-89
2024/02/09 04:51:28;;;;;;;;;;;205.00;2252.80;;;;;;5016593;28;20472;-91
2024/02/09 04:53:53;;;;;;;;;;;204.90;2252.80;;;;;;5006043;28;19909;-88
2024/02/09 04:56:24;;;;;;;;;;;205.00;2252.80;;;;;;5017727;28;20351;-91
2024/02/09 04:58:51;;;;;;;;;;;205.00;2252.80;;;;;;5017275;28;20000;-90
2024/02/09 05:01:27;;;;;;;;;;;204.90;2252.80;;;;;;5017603;28;19912;-92
2024/02/09 05:04:00;;;;;;;;;;;205.00;2252.80;;;;;;5017254;28;19951;-91
2024/02/09 05:06:26;;;;;;;;;;;205.00;2252.80;;;;;;5017327;28;19951;-90
2024/02/09 05:08:58;;;;;;;;;;;205.10;2252.80;;;;;;5017311;28;20274;-91
2024/02/09 05:11:30;;;;;;;;;;;205.10;2252.80;;;;;;5013273;28;19952;-89
2024/02/09 05:13:59;;;;;;;;;;;205.00;2252.80;;;;;;5017371;28;19905;-92
2024/02/09 05:16:24;;;;;;;;;;;205.00;2252.80;;;;;;5004136;28;19959;-92
2024/02/09 05:18:50;;;;;;;;;;;205.00;2252.80;;;;;;5016996;28;19940;-92
2024/02/09 05:21:16;;;;;;;;;;;205.40;2252.80;;;;;;5017303;28;19976;-92
2024/02/09 05:23:42;;;;;;;;;;;205.40;2252.80;;;;;;5028961;28;19939;-92
2024/02/09 05:26:08;;;;;;;;;;;205.10;2252.80;;;;;;5018685;28;19912;-91
2024/02/09 05:28:40;;;;;;;;;;;205.20;2252.80;;;;;;5009759;28;19909;-90
2024/02/09 05:31:11;;;;;;;;;;;205.10;2252.80;;;;;;5007754;28;19905;-89
2024/02/09 05:33:36;;;;;;;;;;;205.10;2252.80;;;;;;5008009;28;19909;-84
2024/02/09 05:36:03;;;;;;;;;;;205.10;2252.80;;;;;;5007234;28;20039;-85
2024/02/09 05:38:32;;;;;;;;;;;205.30;2252.80;;;;;;5010659;28;19940;-84
2024/02/09 05:41:07;;;;;;;;;;;205.30;2252.80;;;;;;5002532;28;20018;-84
2024/02/09 05:43:32;;;;;;;;;;;205.20;2252.80;;;;;;5007500;28;19909;-84
2024/02/09 05:45:58;;;;;;;;;;;205.10;2252.80;;;;;;5016626;28;20278;-84
2024/02/09 05:48:24;;;;;;;;;;;205.10;2252.80;;;;;;5007730;28;19909;-85
2024/02/09 05:50:49;;;;;;;;;;;205.40;2252.80;;;;;;5007419;28;19952;-85
2024/02/09 05:53:17;;;;;;;;;;;205.30;2252.80;;;;;;5008485;28;19909;-84
2024/02/09 05:55:45;;;;;;;;;;;205.30;2252.80;;;;;;5010251;28;19909;-83
2024/02/09 05:58:10;;;;;;;;;;;205.20;2252.80;;;;;;5011057;28;19917;-89
2024/02/09 06:00:36;;;;;;;;;;;205.30;2252.80;;;;;;5011813;28;19912;-86
2024/02/09 06:03:02;;;;;;;;;;;205.30;2252.80;;;;;;5015352;28;20345;-85
2024/02/09 06:05:28;;;;;;;;;;;205.10;2252.80;;;;;;5014071;28;19909;-86
2024/02/09 06:07:54;;;;;;;;;;;205.10;2252.80;;;;;;5013854;28;19910;-87
2024/02/09 06:10:20;;;;;;;;;;;204.90;2252.80;;;;;;5008007;28;19909;-86
2024/02/09 06:12:45;;;;;;;;;;;205.10;2252.80;;;;;;5002905;28;19905;-88
2024/02/09 06:15:11;;;;;;;;;;;205.00;2252.80;;;;;;5015877;28;20343;-86
2024/02/09 06:17:38;;;;;;;;;;;204.90;2252.80;;;;;;5031232;28;19917;-87
2024/02/09 06:20:04;;;;;;;;;;;204.80;2252.80;;;;;;5013444;28;19917;-86
2024/02/09 06:22:30;;;;;;;;;;;205.00;2252.80;;;;;;5018172;28;19920;-87
2024/02/09 06:24:57;;;;;;;;;;;204.90;2252.80;;;;;;5021936;28;19909;-94
2024/02/09 06:27:23;;;;;;;;;;;205.00;2252.80;;;;;;5021191;28;19958;-85
2024/02/09 06:29:49;;;;;;;;;;;205.00;2252.80;;;;;;5010821;28;19916;-93
2024/02/09 06:32:15;;;;;;;;;;;205.00;2252.80;;;;;;5023543;28;19909;-94
2024/02/09 06:34:41;;;;;;;;;;;205.00;2252.80;;;;;;5010571;28;19916;-94
2024/02/09 06:37:06;;;;;;;;;;;205.10;2252.80;;;;;;5006362;28;19913;-95
2024/02/09 06:39:32;;;;;;;;;;;205.20;2252.80;;;;;;5016171;28;19910;-93
2024/02/09 06:41:57;;;;;;;;;;;205.30;2252.80;;;;;;5016277;28;19917;-94
2024/02/09 06:44:23;;;;;;;;;;;205.50;2252.80;;;;;;5006722;28;19915;-88
2024/02/09 06:46:49;;;;;;;;;;;230.40;2252.80;;;;;;5015037;28;19905;-82
2024/02/09 06:49:15;;;;;;;;;;;230.50;2252.80;;;;;;5013875;28;20286;-89
2024/02/09 06:51:44;;;;;;;;;;;230.60;2252.80;;;;;;5016464;28;20282;-87
2024/02/09 06:54:09;;;;;;;;;;;205.70;2252.80;;;;;;5012796;28;19913;-83
2024/02/09 06:56:35;;;;;;;;;;;230.40;2252.80;;;;;;5015359;28;19917;-84
2024/02/09 06:59:01;;;;;;;;;;;230.40;2252.80;;;;;;5024772;28;19909;-89
2024/02/09 07:01:31;;;;;;;;;;;230.50;2252.80;;;;;;5008126;28;19916;-82
2024/02/09 07:03:57;;;;;;;;;;;230.50;2252.80;;;;;;5010853;28;19916;-85
2024/02/09 07:06:23;;;;;;;;;;;230.40;2252.80;;;;;;5005946;28;19951;-84
2024/02/09 07:08:53;;;;;;;;;;;230.40;2252.80;;;;;;5013895;28;20282;-86
2024/02/09 07:11:19;;;;;;;;;;;230.50;2252.80;;;;;;5010160;28;19916;-88
2024/02/09 07:13:46;;;;;;;;;;;205.70;2252.80;;;;;;5007729;28;20298;-80
2024/02/09 07:16:11;;;;;;;;;;;230.70;2252.80;;;;;;5004853;28;19910;-84
2024/02/09 07:18:39;;;;;;;;;;;230.80;2252.80;;;;;;5004825;28;19971;-84
2024/02/09 07:21:06;;;;;;;;;;;230.90;2252.80;;;;;;5005879;28;19921;-80
2024/02/09 07:23:32;;;;;;;;;;;231.00;2252.80;;;;;;5005939;28;19909;-82
2024/02/09 07:25:57;;;;;;;;;;;231.10;2252.80;;;;;;5018669;28;20259;-84
2024/02/09 07:28:23;;;;;;;;;;;231.30;2252.80;;;;;;5007763;28;20345;-83
2024/02/09 07:30:49;;;;;;;;;;;256.10;2252.80;;;;;;5004370;28;19910;-83
2024/02/09 07:33:15;;;;;;;;;;;256.10;2252.80;;;;;;5024943;28;19909;-81
2024/02/09 07:35:41;;;;;;;;;;;256.20;2252.80;;;;;;5029982;28;19909;-79
2024/02/09 07:38:07;;;;;;;;;;;256.40;2252.80;;;;;;5025233;28;19924;-83
2024/02/09 07:40:32;;;;;;;;;;;256.40;2252.80;;;;;;5024341;28;20441;-82
2024/02/09 07:42:58;;;;;;;;;;;256.40;2252.80;;;;;;5026407;28;20366;-76
2024/02/09 07:45:24;;;;;;;;;;;256.30;2252.80;;;;;;5003331;28;19959;-74
2024/02/09 07:47:49;;;;;;;;;;;256.40;2252.80;;;;;;5029864;28;19905;-84
2024/02/09 07:50:15;;;;;;;;;;;256.40;2252.80;;;;;;5015966;28;19908;-75
2024/02/09 07:52:40;;;;;;;;;;;256.50;2252.80;;;;;;5021466;28;20256;-77
2024/02/09 07:55:06;;;;;;;;;;;256.70;2252.80;;;;;;5005354;28;19909;-76
2024/02/09 07:57:32;;;;;;;;;;;281.80;2278.40;;;;;;5021823;28;19924;-80
2024/02/09 07:59:59;;;;;;;;;;;256.90;2252.80;;;;;;5026623;28;19994;-81
2024/02/09 08:02:24;;;;;;;;;;;281.70;2278.40;;;;;;5022084;28;19909;-78
2024/02/09 08:04:50;;;;;;;;;;;281.90;2278.40;;;;;;5021794;28;20005;-74
2024/02/09 08:07:19;;;;;;;;;;;282.00;2278.40;;;;;;5022322;28;19936;-77
2024/02/09 08:09:45;;;;;;;;;;;282.20;2278.40;;;;;;5025047;28;19909;-81
2024/02/09 08:12:12;;;;;;;;;;;282.30;2278.40;;;;;;5016732;28;20381;-74
2024/02/09 08:14:38;;;;;;;;;;;282.40;2278.40;;;;;;5025212;28;19956;-85
2024/02/09 08:17:04;;;;;;;;;;;282.50;2278.40;;;;;;5022959;28;19964;-77
2024/02/09 08:19:32;;;;;;;;;;;307.20;2304.00;;;;;;5024741;28;19922;-78
2024/02/09 08:21:58;;;;;;;;;;;307.40;2304.00;;;;;;5007416;28;19985;-77
2024/02/09 08:24:24;;;;;;;;;;;307.60;2304.00;;;;;;5003791;28;19917;-77
2024/02/09 08:26:50;;;;;;;;;;;307.70;2304.00;;;;;;5002322;28;19906;-75
2024/02/09 08:29:15;;;;;;;;;;;307.90;2304.00;;;;;;5001154;28;19917;-76
2024/02/09 08:31:41;;;;;;;;;;;307.90;2304.00;;;;;;5022540;28;19905;-74
2024/02/09 08:34:06;;;;;;;;;;;308.10;2304.00;;;;;;5022804;28;19909;-82
2024/02/09 08:36:32;;;;;;;;;;;332.80;2329.60;;;;;;5002330;28;19913;-77
2024/02/09 08:38:57;;;;;;;;;;;333.00;2329.60;;;;;;5024101;28;20405;-77
2024/02/09 08:41:23;;;;;;;;;;;333.20;2329.60;;;;;;5008872;28;19917;-77
2024/02/09 08:43:49;;;;;;;;;;;333.30;2329.60;;;;;;5027820;28;20283;-76
2024/02/09 08:46:15;;;;;;;;;;;333.30;2329.60;;;;;;5020392;28;20234;-77
2024/02/09 08:48:40;;;;;;;;;;;333.30;2329.60;;;;;;5029822;28;20001;-79
2024/02/09 08:51:07;;;;;;;;;;;333.40;2329.60;;;;;;5024508;28;19913;-77
2024/02/09 08:53:34;;;;;;;;;;;333.40;2329.60;;;;;;5029494;28;20030;-82
2024/02/09 08:55:59;;;;;;;;;;;333.50;2329.60;;;;;;5024998;28;20442;-87
2024/02/09 08:58:25;;;;;;;;;;;333.60;2329.60;;;;;;4999473;28;20004;-76
2024/02/09 09:00:51;;;;;;;;;;;333.60;2329.60;;;;;;5022050;28;19912;-77
2024/02/09 09:03:17;;;;;;;;;;;358.40;2329.60;;;;;;5010821;28;19909;-84
2024/02/09 09:05:46;;;;;;;;;;;358.50;2329.60;;;;;;5026827;28;19913;-78
2024/02/09 09:08:12;;;;;;;;;;;358.60;2329.60;;;;;;5011964;28;19916;-87
2024/02/09 09:10:38;;;;;;;;;;;358.70;2329.60;;;;;;5022671;28;20387;-78
2024/02/09 09:13:10;;;;;;;;;;;358.90;2329.60;;;;;;5001575;28;19916;-85
2024/02/09 09:15:41;;;;;;;;;;;359.10;2329.60;;;;;;5026114;28;20389;-77
2024/02/09 09:18:07;;;;;;;;;;;359.20;2329.60;;;;;;5009363;28;19917;-75
2024/02/09 09:20:34;;;;;;;;;;;359.30;2329.60;;;;;;5028235;28;20367;-87
2024/02/09 09:23:01;;;;;;;;;;;359.30;2329.60;;;;;;5007172;28;19909;-80
2024/02/09 09:25:30;;;;;;;;;;;384.00;2329.60;;;;;;4996593;28;20042;-87
2024/02/09 09:27:57;;;;;;;;;;;384.00;2329.60;;;;;;5013907;28;20015;-78
2024/02/09 09:30:23;;;;;;;;;;;384.00;2329.60;;;;;;5033640;28;20004;-77
2024/02/09 09:32:49;;;;;;;;;;;384.00;2329.60;;;;;;5002984;28;19965;-77
2024/02/09 09:35:15;;;;;;;;;;;384.10;2329.60;;;;;;4999154;28;19910;-75
2024/02/09 09:37:41;;;;;;;;;;;384.30;2329.60;;;;;;5023276;28;19925;-75
2024/02/09 09:40:08;;;;;;;;;;;384.50;2329.60;;;;;;5004172;28;19916;-81
2024/02/09 09:42:35;;;;;;;;;;;384.50;2329.60;;;;;;5019920;28;19913;-77
2024/02/09 09:45:07;;;;;;;;;;;384.90;2329.60;;;;;;5011196;28;20287;-84
2024/02/09 09:47:33;;;;;;;;;;;409.70;2355.20;;;;;;5012434;28;19913;-84
2024/02/09 09:50:01;;;;;;;;;;;410.10;2355.20;;;;;;5014499;28;20354;-83
2024/02/09 09:52:30;;;;;;;;;;;410.30;2278.40;;;;;;5009132;28;19909;-77
2024/02/09 09:54:59;;;;;;;;;;;435.40;2201.60;;;;;;5011702;28;19905;-78
2024/02/09 09:57:25;;;;;;;;;;;435.40;2252.80;;;;;;5026917;28;20395;-78
2024/02/09 09:59:54;;;;;;;;;;;435.50;2252.80;;;;;;5012652;28;19916;-77
2024/02/09 10:02:21;;;;;;;;;;;435.40;2150.40;;;;;;5012857;28;19990;-83
2024/02/09 10:04:46;;;;;;;;;;;435.70;2073.60;;;;;;5008684;28;19956;-77
2024/02/09 10:07:19;;;;;;;;;;;436.00;2124.80;;;;;;5027521;28;19956;-77
2024/02/09 10:09:45;;;;;;;;;;;461.00;2022.40;;;;;;5021269;28;19913;-76
2024/02/09 10:12:12;;;;;;;;;;;460.90;2048.00;;;;;;5021259;28;19909;-75
2024/02/09 10:14:39;;;;;;;;;;;461.00;2022.40;;;;;;5013296;28;19912;-85
2024/02/09 10:17:06;;;;;;;;;;;460.90;1971.20;;;;;;5030933;28;19952;-87
2024/02/09 10:19:35;;;;;;;;;;;461.30;1894.40;;;;;;5027961;28;19953;-77
2024/02/09 10:22:00;;;;;;;;;;;461.50;1843.20;;;;;;5007979;28;19913;-77
2024/02/09 10:24:26;;;;;;;;;;;461.40;1817.60;;;;;;5029657;28;20362;-78
2024/02/09 10:26:52;;;;;;;;;;;461.50;1817.60;;;;;;5005239;28;19941;-81
2024/02/09 10:29:18;;;;;;;;;;;461.70;1792.00;;;;;;5003960;28;20017;-78
2024/02/09 10:31:45;;;;;;;;;;;486.60;1766.40;;;;;;5021175;28;19914;-76
2024/02/09 10:34:12;;;;;;;;;;;486.70;1792.00;;;;;;5022698;28;20282;-81
2024/02/09 10:36:40;;;;;;;;;;;486.60;1792.00;;;;;;5022511;28;19928;-80
2024/02/09 10:39:07;;;;;;;;;;;486.70;1766.40;;;;;;5019160;28;20350;-77
2024/02/09 10:41:34;;;;;;;;;;;486.80;1715.20;;;;;;5024044;28;19913;-80
2024/02/09 10:44:00;;;;;;;;;;;486.70;1740.80;;;;;;5002437;28;19910;-82
2024/02/09 10:46:27;;;;;;;;;;;486.60;1792.00;;;;;;5012481;28;19955;-80
2024/02/09 10:48:54;;;;;;;;;;;461.70;1843.20;;;;;;5006821;28;19909;-79
2024/02/09 10:51:21;;;;;;;;;;;461.60;1843.20;;;;;;5023700;28;19913;-84
2024/02/09 10:53:52;;;;;;;;;;;461.70;1868.80;;;;;;5027538;28;19905;-84
2024/02/09 10:56:19;;;;;;;;;;;461.70;1868.80;;;;;;5030553;28;20436;-79
2024/02/09 10:58:44;;;;;;;;;;;486.40;1868.80;;;;;;5000885;28;19924;-82
2024/02/09 11:01:10;;;;;;;;;;;486.50;1792.00;;;;;;5025187;28;19909;-75
2024/02/09 11:03:37;;;;;;;;;;;486.50;1740.80;;;;;;5008312;28;19912;-82
2024/02/09 11:06:04;;;;;;;;;;;486.50;1792.00;;;;;;5025538;28;20355;-79
2024/02/09 11:08:29;;;;;;;;;;;486.50;1766.40;;;;;;5009272;28;19912;-81
2024/02/09 11:11:00;;;;;;;;;;;486.70;1740.80;;;;;;5022302;28;19905;-83
2024/02/09 11:13:25;;;;;;;;;;;487.10;1689.60;;;;;;5028089;28;20333;-81
2024/02/09 11:15:55;;;;;;;;;;;487.20;1689.60;;;;;;5011509;28;20362;-82
2024/02/09 11:18:20;;;;;;;;;;;487.10;1689.60;;;;;;5026011;28;19956;-84
2024/02/09 11:20:46;;;;;;;;;;;486.90;1664.00;;;;;;5020303;28;19956;-75
2024/02/09 11:23:11;;;;;;;;;;;487.00;1715.20;;;;;;5022200;28;19937;-77
2024/02/09 11:25:37;;;;;;;;;;;487.30;1638.40;;;;;;5004167;28;19912;-81
2024/02/09 11:28:07;;;;;;;;;;;512.80;1612.80;;;;;;5023227;28;20368;-78
2024/02/09 11:30:32;;;;;;;;;;;538.00;1561.60;;;;;;5009929;28;19916;-75
2024/02/09 11:32:58;;;;;;;;;;;538.30;1459.20;;;;;;5019816;28;19909;-80
2024/02/09 11:35:29;;;;;;;;;;;538.30;1459.20;;;;;;5011410;28;19920;-75
2024/02/09 11:37:57;;;;;;;;;;;538.30;1459.20;;;;;;5016432;28;20059;-85
2024/02/09 11:40:22;;;;;;;;;;;538.50;1433.60;;;;;;5005829;28;19916;-76
2024/02/09 11:42:48;;;;;;;;;;;563.30;1433.60;;;;;;5031711;28;19909;-81
2024/02/09 11:45:13;;;;;;;;;;;563.50;1433.60;;;;;;5019865;28;19917;-76
2024/02/09 11:47:39;;;;;;;;;;;538.50;1408.00;;;;;;5010962;28;20820;-80
2024/02/09 11:50:21;;;;;;;;;;;538.50;1408.00;;;;;;5029158;28;19971;-80
2024/02/09 11:52:47;;;;;;;;;;;563.20;1408.00;;;;;;5017641;28;19913;-76
2024/02/09 11:55:13;;;;;;;;;;;563.20;1408.00;;;;;;5035525;28;19905;-75
2024/02/09 11:57:41;;;;;;;;;;;563.50;1382.40;;;;;;5017881;28;19913;-81
2024/02/09 12:00:07;;;;;;;;;;;563.50;1408.00;;;;;;5035709;28;19908;-78
2024/02/09 12:02:33;;;;;;;;;;;563.60;1382.40;;;;;;5027603;28;19996;-79
2024/02/09 12:04:58;;;;;;;;;;;563.60;1382.40;;;;;;5014739;28;19985;-75
2024/02/09 12:07:25;;;;;;;;;;;563.20;1382.40;;;;;;5015507;28;20314;-75
2024/02/09 12:09:51;;;;;;;;;;;563.20;1382.40;;;;;;5015240;28;19909;-82
2024/02/09 12:12:21;;;;;;;;;;;538.40;1382.40;;;;;;5015181;28;19960;-76
2024/02/09 12:14:46;;;;;;;;;;;538.40;1382.40;;;;;;5015190;28;19952;-82
2024/02/09 12:17:12;;;;;;;;;;;538.50;1382.40;;;;;;5013941;28;19951;-76
2024/02/09 12:19:37;;;;;;;;;;;538.20;1382.40;;;;;;5030180;28;19976;-77
2024/02/09 12:22:04;;;;;;;;;;;537.70;1433.60;;;;;;5034688;28;19909;-76
2024/02/09 12:24:30;;;;;;;;;;;512.90;1408.00;;;;;;5017271;28;19905;-79
2024/02/09 12:26:57;;;;;;;;;;;512.80;1433.60;;;;;;5035060;28;20007;-81
2024/02/09 12:29:24;;;;;;;;;;;512.50;1459.20;;;;;;5034753;28;19905;-76
2024/02/09 12:31:49;;;;;;;;;;;512.60;1459.20;;;;;;5030203;28;19905;-76
2024/02/09 12:34:16;;;;;;;;;;;512.60;1433.60;;;;;;5035178;28;19916;-82
2024/02/09 12:37:02;;;;;;;;;;;512.20;1459.20;;;;;;5034577;28;19905;-74
2024/02/09 12:39:29;;;;;;;;;;;512.00;1459.20;;;;;;5016566;28;19905;-79
2024/02/09 12:42:01;;;;;;;;;;;512.00;1459.20;;;;;;5034538;28;19905;-79
2024/02/09 12:44:30;;;;;;;;;;;487.30;1459.20;;;;;;5034395;28;19936;-74
2024/02/09 12:47:02;;;;;;;;;;;512.00;1459.20;;;;;;5016676;28;19905;-75
2024/02/09 12:49:28;;;;;;;;;;;512.20;1433.60;;;;;;5015858;28;20363;-80
2024/02/09 12:51:54;;;;;;;;;;;512.30;1459.20;;;;;;5021241;28;19923;-82
2024/02/09 12:54:19;;;;;;;;;;;512.30;1433.60;;;;;;5034013;28;19905;-77
2024/02/09 12:56:45;;;;;;;;;;;512.30;1433.60;;;;;;5034131;28;19905;-78
2024/02/09 12:59:11;;;;;;;;;;;512.20;1433.60;;;;;;5015620;28;19977;-76
2024/02/09 13:01:36;;;;;;;;;;;512.00;1459.20;;;;;;5016493;28;20358;-77
2024/02/09 13:04:02;;;;;;;;;;;512.00;1484.80;;;;;;5016714;28;19905;-79
2024/02/09 13:06:28;;;;;;;;;;;512.00;1433.60;;;;;;5016495;28;19912;-77
2024/02/09 13:08:56;;;;;;;;;;;512.00;1459.20;;;;;;5016493;28;19909;-77
2024/02/09 13:11:24;;;;;;;;;;;487.30;1433.60;;;;;;5034141;28;19955;-78
2024/02/09 13:13:49;;;;;;;;;;;487.30;1433.60;;;;;;5029918;28;19913;-76
2024/02/09 13:16:15;;;;;;;;;;;487.30;1459.20;;;;;;5019968;28;19909;-83
2024/02/09 13:18:41;;;;;;;;;;;487.30;1459.20;;;;;;5003438;28;19913;-81
2024/02/09 13:21:06;;;;;;;;;;;487.30;1484.80;;;;;;4998827;28;20291;-81
2024/02/09 13:23:34;;;;;;;;;;;487.20;1459.20;;;;;;5003132;28;19909;-79
2024/02/09 13:26:00;;;;;;;;;;;487.30;1459.20;;;;;;5026467;28;19992;-79
2024/02/09 13:28:32;;;;;;;;;;;487.30;1459.20;;;;;;5011698;28;19909;-76
2024/02/09 13:30:58;;;;;;;;;;;487.30;1459.20;;;;;;4999989;28;19905;-77
2024/02/09 13:33:24;;;;;;;;;;;487.30;1484.80;;;;;;5007593;28;20564;-77
2024/02/09 13:35:49;;;;;;;;;;;487.30;1484.80;;;;;;5017250;28;19920;-77
2024/02/09 13:38:15;;;;;;;;;;;487.30;1484.80;;;;;;5026999;28;19913;-76
2024/02/09 13:40:42;;;;;;;;;;;487.20;1484.80;;;;;;5023014;28;19911;-76
2024/02/09 13:43:09;;;;;;;;;;;487.20;1484.80;;;;;;5027615;28;19909;-78
2024/02/09 13:45:34;;;;;;;;;;;487.10;1484.80;;;;;;5001312;28;19910;-79
2024/02/09 13:48:00;;;;;;;;;;;487.00;1536.00;;;;;;5024533;28;19963;-81
2024/02/09 13:50:26;;;;;;;;;;;486.90;1612.80;;;;;;5015902;28;19978;-79
2024/02/09 13:52:53;;;;;;;;;;;486.80;1664.00;;;;;;5004920;28;19909;-79
2024/02/09 13:55:21;;;;;;;;;;;486.80;1638.40;;;;;;5002763;28;19909;-79
2024/02/09 13:57:56;;;;;;;;;;;486.80;1536.00;;;;;;5015284;28;19917;-77
2024/02/09 14:00:24;;;;;;;;;;;486.70;1536.00;;;;;;5014485;28;19916;-77
2024/02/09 14:02:49;;;;;;;;;;;486.50;1561.60;;;;;;5027659;28;19987;-78
2024/02/09 14:05:15;;;;;;;;;;;486.50;1561.60;;;;;;5002264;28;19991;-76
2024/02/09 14:07:43;;;;;;;;;;;486.60;1561.60;;;;;;5023963;28;19909;-79
2024/02/09 14:10:10;;;;;;;;;;;486.50;1561.60;;;;;;5018494;28;19913;-78
2024/02/09 14:12:36;;;;;;;;;;;486.40;1587.20;;;;;;5006338;28;19944;-78
2024/02/09 14:15:02;;;;;;;;;;;486.40;1612.80;;;;;;5012625;28;20002;-78
2024/02/09 14:17:33;;;;;;;;;;;486.40;1612.80;;;;;;5021746;28;19920;-78
2024/02/09 14:19:59;;;;;;;;;;;461.70;1612.80;;;;;;5007857;28;19918;-78
2024/02/09 14:22:25;;;;;;;;;;;461.60;1612.80;;;;;;5014429;28;19917;-77
2024/02/09 14:24:50;;;;;;;;;;;461.50;1612.80;;;;;;5018294;28;19909;-78
2024/02/09 14:27:16;;;;;;;;;;;461.40;1638.40;;;;;;5006238;28;19905;-78
2024/02/09 14:29:45;;;;;;;;;;;461.40;1664.00;;;;;;5014232;28;19980;-79
2024/02/09 14:32:11;;;;;;;;;;;461.30;1664.00;;;;;;5030264;28;19917;-77
2024/02/09 14:34:38;;;;;;;;;;;461.30;1689.60;;;;;;5011594;28;19909;-77
2024/02/09 14:37:03;;;;;;;;;;;461.20;1664.00;;;;;;5017152;28;20153;-78
2024/02/09 14:39:29;;;;;;;;;;;461.20;1715.20;;;;;;5028922;28;19910;-78
2024/02/09 14:41:54;;;;;;;;;;;461.00;1715.20;;;;;;5009136;28;19925;-78
2024/02/09 14:44:20;;;;;;;;;;;460.90;1766.40;;;;;;5018129;28;19909;-78
2024/02/09 14:46:46;;;;;;;;;;;460.90;1792.00;;;;;;5011620;28;19936;-82
2024/02/09 14:49:12;;;;;;;;;;;460.80;1817.60;;;;;;4998607;28;19932;-80
2024/02/09 14:51:41;;;;;;;;;;;436.10;1817.60;;;;;;5025130;28;19909;-82
2024/02/09 14:54:10;;;;;;;;;;;436.10;1843.20;;;;;;5007046;28;19959;-80
2024/02/09 14:56:35;;;;;;;;;;;436.10;1843.20;;;;;;5007838;28;19913;-80
2024/02/09 14:59:03;;;;;;;;;;;436.00;1868.80;;;;;;5013289;28;19913;-77
2024/02/09 15:01:29;;;;;;;;;;;435.90;1894.40;;;;;;5008675;28;19909;-82
2024/02/09 15:03:54;;;;;;;;;;;435.50;1894.40;;;;;;5014219;28;19911;-81
2024/02/09 15:06:20;;;;;;;;;;;435.90;1920.00;;;;;;5024504;28;19906;-82
2024/02/09 15:08:48;;;;;;;;;;;435.90;1920.00;;;;;;5005986;28;19905;-81
2024/02/09 15:11:21;;;;;;;;;;;435.80;1920.00;;;;;;5000032;28;20332;-81
2024/02/09 15:13:47;;;;;;;;;;;435.80;1920.00;;;;;;5003438;28;19960;-80
2024/02/09 15:16:12;;;;;;;;;;;435.70;1920.00;;;;;;5010144;28;19971;-81
2024/02/09 15:18:38;;;;;;;;;;;435.60;1920.00;;;;;;5005569;28;20359;-83
2024/02/09 15:21:04;;;;;;;;;;;435.60;1920.00;;;;;;5006188;28;20283;-81
2024/02/09 15:23:31;;;;;;;;;;;435.60;1920.00;;;;;;5003816;28;20338;-81
2024/02/09 15:25:57;;;;;;;;;;;435.50;1945.60;;;;;;5011713;28;19991;-81
2024/02/09 15:28:26;;;;;;;;;;;435.50;1945.60;;;;;;5016144;28;19939;-81